sensor_id;sensor_type;location;lat;lon;timestamp;P1;durP1;ratioP1;P2;durP2;ratioP2
84788;SDS011;75022;50.788;20.620;2024-03-02T00:00:14;37.28;;;31.380000000000003;;
84788;SDS011;75022;50.788;20.620;2024-03-02T00:10:25;33.04;;;28.12;;
84788;SDS011;75022;50.788;20.620;2024-03-02T00:20:02;31.889999999999997;;;27.25;;
84788;SDS011;75022;50.788;20.620;2024-03-02T00:40:09;24.62;;;21.44;;
84788;SDS011;75022;50.788;20.620;2024-03-02T00:50:15;22.96;;;20.16;;
84788;SDS011;75022;50.788;20.620;2024-03-02T01:00:10;22.87;;;19.93;;
84788;SDS011;75022;50.788;20.620;2024-03-02T01:10:10;23.25;;;20.11;;
84788;SDS011;75022;50.788;20.620;2024-03-02T01:20:13;23.26;;;20.169999999999998;;
84788;SDS011;75022;50.788;20.620;2024-03-02T01:30:02;23.44;;;20.259999999999998;;
84788;SDS011;75022;50.788;20.620;2024-03-02T01:40:18;23.4;;;20.19;;
84788;SDS011;75022;50.788;20.620;2024-03-02T01:50:16;23.509999999999998;;;20.3;;
84788;SDS011;75022;50.788;20.620;2024-03-02T02:00:11;23.78;;;20.38;;
84788;SDS011;75022;50.788;20.620;2024-03-02T02:10:07;24.2;;;20.57;;
84788;SDS011;75022;50.788;20.620;2024-03-02T02:20:10;24.24;;;20.6;;
84788;SDS011;75022;50.788;20.620;2024-03-02T02:30:03;24.279999999999998;;;20.65;;
84788;SDS011;75022;50.788;20.620;2024-03-02T02:40:15;24.88;;;21.049999999999997;;
84788;SDS011;75022;50.788;20.620;2024-03-02T02:50:16;24.76;;;20.91;;
84788;SDS011;75022;50.788;20.620;2024-03-02T03:00:19;24.77;;;21.16;;
84788;SDS011;75022;50.788;20.620;2024-03-02T03:10:07;24.45;;;20.86;;
84788;SDS011;75022;50.788;20.620;2024-03-02T03:20:02;24.39;;;20.900000000000002;;
84788;SDS011;75022;50.788;20.620;2024-03-02T03:30:08;24.79;;;21.15;;
84788;SDS011;75022;50.788;20.620;2024-03-02T03:40:22;24.95;;;21.04;;
84788;SDS011;75022;50.788;20.620;2024-03-02T03:50:02;25.110000000000003;;;21.09;;
84788;SDS011;75022;50.788;20.620;2024-03-02T04:00:05;25.32;;;21.4;;
84788;SDS011;75022;50.788;20.620;2024-03-02T04:10:09;25.799999999999997;;;21.57;;
84788;SDS011;75022;50.788;20.620;2024-03-02T04:20:10;26.05;;;21.73;;
84788;SDS011;75022;50.788;20.620;2024-03-02T04:30:12;25.93;;;21.64;;
84788;SDS011;75022;50.788;20.620;2024-03-02T04:40:04;26.03;;;21.71;;
84788;SDS011;75022;50.788;20.620;2024-03-02T04:50:02;26.17;;;21.82;;
84788;SDS011;75022;50.788;20.620;2024-03-02T05:00:18;26.490000000000002;;;22.01;;
84788;SDS011;75022;50.788;20.620;2024-03-02T05:10:13;27.08;;;22.29;;
84788;SDS011;75022;50.788;20.620;2024-03-02T05:20:12;27.24;;;22.34;;
84788;SDS011;75022;50.788;20.620;2024-03-02T05:30:17;27.23;;;22.39;;
84788;SDS011;75022;50.788;20.620;2024-03-02T05:40:09;27.0;;;22.2;;
84788;SDS011;75022;50.788;20.620;2024-03-02T05:50:14;26.939999999999998;;;22.139999999999997;;
84788;SDS011;75022;50.788;20.620;2024-03-02T06:00:02;26.37;;;21.96;;
84788;SDS011;75022;50.788;20.620;2024-03-02T06:10:08;25.830000000000002;;;21.53;;
84788;SDS011;75022;50.788;20.620;2024-03-02T06:20:09;25.5;;;21.45;;
84788;SDS011;75022;50.788;20.620;2024-03-02T06:30:14;25.53;;;21.37;;
84788;SDS011;75022;50.788;20.620;2024-03-02T06:40:02;25.93;;;21.549999999999997;;
84788;SDS011;75022;50.788;20.620;2024-03-02T06:50:05;26.5;;;21.919999999999998;;
84788;SDS011;75022;50.788;20.620;2024-03-02T07:00:14;26.48;;;21.880000000000003;;
84788;SDS011;75022;50.788;20.620;2024-03-02T07:10:12;26.57;;;21.91;;
84788;SDS011;75022;50.788;20.620;2024-03-02T07:20:05;26.46;;;21.82;;
84788;SDS011;75022;50.788;20.620;2024-03-02T07:30:04;27.349999999999998;;;22.56;;
84788;SDS011;75022;50.788;20.620;2024-03-02T07:40:04;27.12;;;22.360000000000003;;
84788;SDS011;75022;50.788;20.620;2024-03-02T07:50:07;26.55;;;21.89;;
84788;SDS011;75022;50.788;20.620;2024-03-02T08:00:03;26.540000000000003;;;22.0;;
84788;SDS011;75022;50.788;20.620;2024-03-02T08:10:13;26.61;;;22.080000000000002;;
84788;SDS011;75022;50.788;20.620;2024-03-02T08:20:02;27.18;;;22.419999999999998;;
84788;SDS011;75022;50.788;20.620;2024-03-02T08:30:15;26.509999999999998;;;21.970000000000002;;
84788;SDS011;75022;50.788;20.620;2024-03-02T08:40:17;26.87;;;22.240000000000002;;
84788;SDS011;75022;50.788;20.620;2024-03-02T08:50:10;27.04;;;22.340000000000003;;
84788;SDS011;75022;50.788;20.620;2024-03-02T09:00:09;27.16;;;22.29;;
84788;SDS011;75022;50.788;20.620;2024-03-02T09:10:08;26.91;;;22.09;;
84788;SDS011;75022;50.788;20.620;2024-03-02T09:20:02;26.689999999999998;;;22.01;;
84788;SDS011;75022;50.788;20.620;2024-03-02T09:30:16;26.529999999999998;;;21.790000000000003;;
84788;SDS011;75022;50.788;20.620;2024-03-02T09:40:10;25.680000000000003;;;21.42;;
84788;SDS011;75022;50.788;20.620;2024-03-02T09:50:15;25.77;;;21.47;;
84788;SDS011;75022;50.788;20.620;2024-03-02T10:00:19;25.33;;;21.14;;
84788;SDS011;75022;50.788;20.620;2024-03-02T10:10:16;25.08;;;20.96;;
84788;SDS011;75022;50.788;20.620;2024-03-02T10:20:34;24.65;;;20.689999999999998;;
84788;SDS011;75022;50.788;20.620;2024-03-02T10:30:17;24.17;;;20.42;;
84788;SDS011;75022;50.788;20.620;2024-03-02T10:40:04;24.0;;;20.37;;
84788;SDS011;75022;50.788;20.620;2024-03-02T10:50:15;23.830000000000002;;;20.05;;
84788;SDS011;75022;50.788;20.620;2024-03-02T11:00:02;23.89;;;20.2;;
84788;SDS011;75022;50.788;20.620;2024-03-02T11:10:11;23.71;;;20.05;;
84788;SDS011;75022;50.788;20.620;2024-03-02T11:20:02;23.82;;;20.14;;
84788;SDS011;75022;50.788;20.620;2024-03-02T11:30:50;23.9;;;20.27;;
84788;SDS011;75022;50.788;20.620;2024-03-02T11:40:23;23.830000000000002;;;20.240000000000002;;
84788;SDS011;75022;50.788;20.620;2024-03-02T11:50:13;23.990000000000002;;;20.25;;
84788;SDS011;75022;50.788;20.620;2024-03-02T12:00:21;24.189999999999998;;;20.35;;
84788;SDS011;75022;50.788;20.620;2024-03-02T12:10:04;24.85;;;20.59;;
84788;SDS011;75022;50.788;20.620;2024-03-02T12:20:04;25.21;;;20.93;;
84788;SDS011;75022;50.788;20.620;2024-03-02T12:30:06;25.669999999999998;;;21.16;;
84788;SDS011;75022;50.788;20.620;2024-03-02T12:40:06;25.82;;;21.35;;
84788;SDS011;75022;50.788;20.620;2024-03-02T12:50:10;26.39;;;21.76;;
84788;SDS011;75022;50.788;20.620;2024-03-02T13:00:24;26.599999999999998;;;21.770000000000003;;
84788;SDS011;75022;50.788;20.620;2024-03-02T13:10:05;26.740000000000002;;;22.0;;
84788;SDS011;75022;50.788;20.620;2024-03-02T13:20:11;26.869999999999997;;;22.090000000000003;;
84788;SDS011;75022;50.788;20.620;2024-03-02T13:30:13;26.46;;;21.779999999999998;;
84788;SDS011;75022;50.788;20.620;2024-03-02T13:40:02;26.53;;;21.799999999999997;;
84788;SDS011;75022;50.788;20.620;2024-03-02T13:50:11;26.47;;;21.77;;
84788;SDS011;75022;50.788;20.620;2024-03-02T14:00:22;26.38;;;21.73;;
84788;SDS011;75022;50.788;20.620;2024-03-02T14:10:02;26.03;;;21.560000000000002;;
84788;SDS011;75022;50.788;20.620;2024-03-02T14:20:02;26.18;;;21.639999999999997;;
84788;SDS011;75022;50.788;20.620;2024-03-02T14:30:10;26.87;;;21.97;;
84788;SDS011;75022;50.788;20.620;2024-03-02T14:40:13;26.85;;;21.96;;
84788;SDS011;75022;50.788;20.620;2024-03-02T14:50:18;27.069999999999997;;;22.05;;
84788;SDS011;75022;50.788;20.620;2024-03-02T15:00:08;26.75;;;21.880000000000003;;
84788;SDS011;75022;50.788;20.620;2024-03-02T15:10:07;26.779999999999998;;;22.06;;
84788;SDS011;75022;50.788;20.620;2024-03-02T15:20:10;27.22;;;22.27;;
84788;SDS011;75022;50.788;20.620;2024-03-02T15:30:17;27.33;;;22.34;;
84788;SDS011;75022;50.788;20.620;2024-03-02T15:40:07;28.150000000000002;;;22.88;;
84788;SDS011;75022;50.788;20.620;2024-03-02T15:50:07;28.549999999999997;;;23.31;;
84788;SDS011;75022;50.788;20.620;2024-03-02T16:00:19;29.48;;;23.98;;
84788;SDS011;75022;50.788;20.620;2024-03-02T16:10:02;30.91;;;24.93;;
84788;SDS011;75022;50.788;20.620;2024-03-02T16:20:14;32.38;;;26.46;;
84788;SDS011;75022;50.788;20.620;2024-03-02T16:30:05;33.160000000000004;;;27.06;;
84788;SDS011;75022;50.788;20.620;2024-03-02T16:40:12;33.85;;;27.44;;
84788;SDS011;75022;50.788;20.620;2024-03-02T16:50:13;35.410000000000004;;;28.5;;
84788;SDS011;75022;50.788;20.620;2024-03-02T17:00:09;36.36;;;29.5;;
84788;SDS011;75022;50.788;20.620;2024-03-02T17:10:02;37.86000000000001;;;30.57;;
84788;SDS011;75022;50.788;20.620;2024-03-02T17:20:12;38.21;;;30.919999999999998;;
84788;SDS011;75022;50.788;20.620;2024-03-02T17:30:07;39.47;;;31.64;;
84788;SDS011;75022;50.788;20.620;2024-03-02T17:40:10;40.35;;;32.459999999999994;;
84788;SDS011;75022;50.788;20.620;2024-03-02T17:50:15;40.76;;;33.0;;
84788;SDS011;75022;50.788;20.620;2024-03-02T18:00:23;41.19;;;33.21;;
84788;SDS011;75022;50.788;20.620;2024-03-02T18:10:11;40.62;;;32.44;;
84788;SDS011;75022;50.788;20.620;2024-03-02T18:20:12;40.059999999999995;;;31.900000000000002;;
84788;SDS011;75022;50.788;20.620;2024-03-02T18:30:03;39.96;;;31.439999999999998;;
84788;SDS011;75022;50.788;20.620;2024-03-02T18:40:12;39.65;;;31.44;;
84788;SDS011;75022;50.788;20.620;2024-03-02T18:50:11;38.910000000000004;;;30.71;;
84788;SDS011;75022;50.788;20.620;2024-03-02T19:00:14;39.339999999999996;;;31.23;;
84788;SDS011;75022;50.788;20.620;2024-03-02T19:10:09;40.029999999999994;;;32.33;;
84788;SDS011;75022;50.788;20.620;2024-03-02T19:20:17;40.580000000000005;;;32.63;;
84788;SDS011;75022;50.788;20.620;2024-03-02T19:30:11;41.0;;;32.85;;
84788;SDS011;75022;50.788;20.620;2024-03-02T19:40:16;41.35;;;33.15;;
84788;SDS011;75022;50.788;20.620;2024-03-02T19:50:05;41.64;;;33.45;;
84788;SDS011;75022;50.788;20.620;2024-03-02T20:00:16;41.28;;;33.16;;
84788;SDS011;75022;50.788;20.620;2024-03-02T20:10:07;40.81;;;32.79;;
84788;SDS011;75022;50.788;20.620;2024-03-02T20:40:11;40.809999999999995;;;33.01;;
84788;SDS011;75022;50.788;20.620;2024-03-02T20:50:15;40.18;;;32.34;;
84788;SDS011;75022;50.788;20.620;2024-03-02T21:00:20;39.83;;;32.08;;
84788;SDS011;75022;50.788;20.620;2024-03-02T21:10:14;39.11;;;31.18;;
84788;SDS011;75022;50.788;20.620;2024-03-02T21:30:05;37.15;;;29.41;;
84788;SDS011;75022;50.788;20.620;2024-03-02T22:00:18;38.19;;;30.32;;
84788;SDS011;75022;50.788;20.620;2024-03-02T22:20:11;38.059999999999995;;;30.16;;
84788;SDS011;75022;50.788;20.620;2024-03-02T22:30:14;37.81;;;29.99;;
84788;SDS011;75022;50.788;20.620;2024-03-02T22:40:13;37.1;;;29.45;;
84788;SDS011;75022;50.788;20.620;2024-03-02T23:00:58;37.38;;;29.59;;
84788;SDS011;75022;50.788;20.620;2024-03-02T23:20:07;37.6;;;29.88;;
84788;SDS011;75022;50.788;20.620;2024-03-02T23:30:05;37.89;;;30.12;;
84788;SDS011;75022;50.788;20.620;2024-03-02T23:40:33;38.099999999999994;;;30.29;;
